Larkfield, California
Current Conditions -  °F | °C
As of 5:53 AM on Friday 31 Oct 2014 (Local Time) from KSTS Reporting Station
Overcast Overcast  
Wind Chill: 60°   Ceiling: 1600
Heat Index: 60°   Visibility: 10mi
Dew Point: 57°   Wind: 5mph
Humidity: 90%   Direction: 180°S
Pressure: 29.84"   Gusts: NA
Location:  38.4891°N, 122.745°W
Report Text: KSTS 311253Z AUTO 18004KT 10SM OVC016 16/14 A2984 RMK AO2 RAB10E19 SLP098 P0000 T01560139
Loading
Personal Weather Stations






























Interactive Weather Map
Tropical Storm Tracking
New forecast layout! Learn more

10-Day Weather Forecast

Advertisements
Track Severe Weather on mobile